Flight Track Log - Related Links

Times and Time Zones

All times are in EDT time to prevent confusion due to time zone crossing. See the CTL18 flight status page for this flight to view local times or setup timezone preferences in your user account.

Time Position Orientation Groundspeed Altitude Reporting Facility
EDT Latitude Longitude Course Direction KTS MPH feet Rate Location/Type
Wed 09:01:40 PM 42.2186 -83.5600 226° Southwest 110 127 1,500  Level FAA TRACON SMA TRACON (SMA)
Wed 09:02:00 PM 42.2117 -83.5694 225° Southwest 113 130 1,700 750 Climbing FAA TRACON SMA TRACON (SMA)
Wed 09:02:20 PM 42.2039 -83.5794 224° Southwest 121 139 2,000 900 Climbing FAA TRACON SMA TRACON (SMA)
Wed 09:02:40 PM 42.1936 -83.5928 224° Southwest 129 148 2,300 769 Climbing FAA TRACON SMA TRACON (SMA)
Wed 09:02:59 PM 42.1856 -83.6028 223° Southwest 129 148 2,500 600 Climbing FAA TRACON SMA TRACON (SMA)
Wed 09:03:20 PM 42.1769 -83.6133 222° Southwest 133 153 2,700 600 Climbing FAA TRACON SMA TRACON (SMA)
Wed 09:03:39 PM 42.1661 -83.6264 222° Southwest 135 155 2,900 308 Climbing FAA TRACON SMA TRACON (SMA)
Wed 09:03:59 PM 42.1567 -83.6378 222° Southwest 146 168 2,900  Level FAA TRACON SMA TRACON (SMA)
Wed 09:04:20 PM 42.1453 -83.6478 213° Southwest 160 184 2,900 150 Level FAA TRACON SMA TRACON (SMA)
Wed 09:04:39 PM 42.1272 -83.6483 181° South 166 191 3,000 150 Climbing FAA TRACON SMA TRACON (SMA)
Wed 09:05:00 PM 42.1122 -83.6456 172° South 175 201 3,000  Level FAA TRACON SMA TRACON (SMA)
Wed 09:05:19 PM 42.0964 -83.6431 173° South 183 211 3,000 -150 Level FAA TRACON SMA TRACON (SMA)
Wed 09:05:40 PM 42.0767 -83.6400 173° South 184 212 2,900 -146 Descending FAA TRACON SMA TRACON (SMA)
Wed 09:06:00 PM 42.0611 -83.6375 173° South 185 213 2,900  Level FAA TRACON SMA TRACON (SMA)
Wed 09:06:19 PM 42.0453 -83.6347 173° South 185 213 2,900  Level FAA TRACON SMA TRACON (SMA)
Wed 09:06:40 PM 42.0258 -83.6314 173° South 185 213 2,900  Level FAA TRACON SMA TRACON (SMA)
Wed 09:06:59 PM 42.0108 -83.6222 156° South 201 231 2,900 150 Level FAA TRACON SMA TRACON (SMA)
Wed 09:07:20 PM 41.9981 -83.6022 131° Southeast 198 228 3,000 732 Climbing FAA TRACON SMA TRACON (SMA)
Wed 09:07:40 PM 41.9925 -83.5839 112° Southeast 185 213 3,400 1,077 Climbing FAA TRACON SMA TRACON (SMA)
Wed 09:07:59 PM 41.9878 -83.5617 106° East 174 200 3,700 900 Climbing FAA TRACON SMA TRACON (SMA)
Wed 09:08:20 PM 41.9825 -83.5417 110° East 172 198 4,000 750 Climbing FAA TRACON SMA TRACON (SMA)
Wed 09:08:39 PM 41.9781 -83.5225 107° East 170 196 4,200 750 Climbing FAA TRACON SMA TRACON (SMA)
Wed 09:09:00 PM 41.9719 -83.4997 110° East 171 197 4,500 585 Climbing FAA TRACON SMA TRACON (SMA)
Wed 09:09:20 PM 41.9664 -83.4831 114° Southeast 173 199 4,600 615 Climbing FAA TRACON SMA TRACON (SMA)
Wed 09:09:39 PM 41.9600 -83.4622 112° Southeast 173 199 4,900 450 Climbing FAA TRACON SMA TRACON (SMA)
Wed 09:10:00 PM 41.9547 -83.4431 110° East 175 201 4,900  Level FAA TRACON SMA TRACON (SMA)
Wed 09:10:15 PM 41.9478 -83.4225 114° Southeast 189 217 4,900  Level Cleveland Center
Wed 09:11:22 PM 41.9286 -83.3492 109° East 194 223 4,900 47 Level Cleveland Center
Wed 09:12:23 PM 41.9114 -83.2842 110° East 185 213 5,000 47 Climbing Cleveland Center
Wed 09:13:29 PM 41.8922 -83.2108 109° East 187 215 5,000  Level Cleveland Center
Wed 09:14:42 PM 41.8753 -83.1292 106° East 188 216 5,000  Level Cleveland Center
Wed 09:15:31 PM 41.8600 -83.0756 111° Southeast 188 216 5,000 130 Level Cleveland Center
Wed 09:16:14 PM 41.8503 -83.0392 110° East 188 216 5,200  Climbing Cleveland Center
Wed 09:16:45 PM 41.8447 -83.0053 102° East 184 212 5,000  Descending Cleveland Center
Wed 09:17:45 PM 41.8294 -82.9406 108° East 153 176 5,200 47 Climbing Cleveland Center
Wed 09:18:52 PM 41.8178 -82.8931 108° East 101 116 5,100 -94 Descending Cleveland Center
Wed 09:19:53 PM 41.8103 -82.8536 104° East 105 121 5,000  Descending Cleveland Center
Wed 09:20:53 PM 41.7969 -82.7947 107° East 193 222 5,100 50 Climbing Cleveland Center
Wed 09:21:54 PM 41.7814 -82.7300 108° East 186 214 5,100  Level Cleveland Center
Wed 09:22:55 PM 41.7639 -82.6628 109° East 189 217 5,100  Level Cleveland Center
Wed 09:23:55 PM 41.7464 -82.5953 109° East 187 215 5,100  Level Cleveland Center
Wed 09:24:56 PM 41.7328 -82.5308 106° East 187 215 5,100  Level Cleveland Center
Wed 09:25:56 PM 41.7133 -82.4553 109° East 191 220 5,100  Level Cleveland Center
Wed 09:26:57 PM 41.6956 -82.3881 109° East 192 221 5,100  Level Cleveland Center
Wed 09:28:04 PM 41.6800 -82.3181 107° East 191 220 5,100 -351 Level Cleveland Center
Wed 09:30:05 PM 41.6592 -82.1700 101° East 206 237 4,000 -365 Descending Cleveland Center
Wed 09:31:05 PM 41.6519 -82.0978 98° East 194 223 4,000 50 Level Cleveland Center
Wed 09:32:06 PM 41.6403 -82.0306 103° East 182 209 4,100 -49 Climbing Cleveland Center
Wed 09:33:07 PM 41.6306 -81.9583 100° East 189 217 3,900 -347 Descending Cleveland Center
Wed 09:34:07 PM 41.6231 -81.8858 98° East 199 229 3,400 -470 Descending Cleveland Center
Wed 09:35:02 PM 41.6031 -81.8272 115° Southeast 202 232 3,000 -606 Descending Cleveland Center
Wed 09:35:56 PM 41.5850 -81.7658 111° Southeast 196 226 2,300 -730 Descending Cleveland Center
Wed 09:36:57 PM 41.5625 -81.7014 115° Southeast 176 203 1,600 -590 Descending Cleveland Center
Wed 09:37:58 PM 41.5358 -81.6622 132° Southeast 123 142 1,100 -492 Descending Cleveland Center
Wed 09:39:00 PM 41.5167 -81.6667 217° Southwest  Level FlightAware Approximate
Wed 09:46:00 PM 41.5175 -81.6833 217° Southwest  Level Estimated
Wed 09:47:00 PM 41.5175 -81.6833 217° Southwest  Level Estimated
Wed 09:48:00 PM 41.5175 -81.6833 217° Southwest  Level Estimated
Wed 09:49:00 PM 41.5175 -81.6833 217° Southwest  Level Estimated
Wed 09:50:00 PM 41.5175 -81.6833 217° Southwest  Level Estimated
Wed 09:51:00 PM 41.5175 -81.6833 217° Southwest  Level Estimated
Wed 09:52:00 PM 41.5175 -81.6833 217° Southwest  Level Estimated
Wed 09:53:00 PM 41.5175 -81.6833 217° Southwest  Level Estimated
Wed 09:54:00 PM 41.5175 -81.6833 217° Southwest  Level Estimated
Wed 09:55:00 PM 41.5175 -81.6833 217° Southwest  Level Estimated
Wed 09:56:00 PM 41.5175 -81.6833 217° Southwest  Level Estimated
Wed 09:57:00 PM 41.5175 -81.6833 217° Southwest  Level Estimated

Login

Don't have an account? Register now (free) for customized features, flight alerts, and more!